Watauga, South Dakota
Current Conditions -  °F | °C
As of 1:53 PM on Wednesday 17 Dec 2014 (Local Time) from KHEI Reporting Station
Overcast Overcast  
Wind Chill:   Ceiling: 600
Heat Index: 17°   Visibility: 10mi
Dew Point: 14°   Wind: 12mph
Humidity: 88%   Direction: 130°SE
Pressure: 30.07"   Gusts: NA
Location:  45.92°N, 101.54°W
Report Text: KHEI 172053Z AUTO 13010KT 10SM OVC006 M08/M10 A3007 RMK AO2 SLP228 60000 T10831100 56017
Loading
Personal Weather Stations






























Interactive Weather Map New forecast layout! Learn more

10-Day Weather Forecast

Advertisements
Track Severe Weather on mobile